createdAt,value
2019-02-09T00:03:00.232Z,13.47
2019-02-09T00:08:02.327Z,10.97
2019-02-09T00:13:04.112Z,10.83
2019-02-09T00:18:06.198Z,11.93
2019-02-09T00:23:08.433Z,11.27
2019-02-09T00:28:10.173Z,12.60
2019-02-09T00:33:11.952Z,8.97
2019-02-09T00:38:13.644Z,10.70
2019-02-09T00:43:15.455Z,13.73
2019-02-09T00:48:17.123Z,12.50
2019-02-09T00:53:19.499Z,11.60
2019-02-09T00:58:24.503Z,15.33
2019-02-09T01:03:26.421Z,12.97
2019-02-09T01:08:28.656Z,10.13
2019-02-09T01:13:30.426Z,8.70
2019-02-09T01:18:32.225Z,13.43
2019-02-09T01:23:36.285Z,11.17
2019-02-09T01:28:37.982Z,11.43
2019-02-09T01:33:41.772Z,9.00
2019-02-09T01:38:45.069Z,11.20
2019-02-09T01:43:46.773Z,11.90
2019-02-09T01:48:48.563Z,8.60
2019-02-09T01:53:50.302Z,11.57
2019-02-09T01:58:53.527Z,8.63
2019-02-09T02:03:59.860Z,9.90
2019-02-09T02:09:06.324Z,13.30
2019-02-09T02:14:09.884Z,13.77
2019-02-09T02:19:12.500Z,12.07
2019-02-09T02:24:18.965Z,13.80
2019-02-09T02:29:20.796Z,11.20
2019-02-09T02:34:22.907Z,10.77
2019-02-09T02:39:24.509Z,9.43
2019-02-09T02:44:26.322Z,11.50
2019-02-09T02:49:28.117Z,10.03
2019-02-09T02:54:29.813Z,9.00
2019-02-09T02:59:34.538Z,14.20
2019-02-09T03:04:39.762Z,20.30
2019-02-09T03:09:43.446Z,9.97
2019-02-09T03:14:45.274Z,14.40
2019-02-09T03:19:46.914Z,8.67
2019-02-09T03:24:49.946Z,11.90
2019-02-09T03:29:51.615Z,9.93
2019-02-09T03:34:53.447Z,11.57
2019-02-09T03:39:55.248Z,8.90
2019-02-09T03:44:56.944Z,7.90
2019-02-09T03:49:58.722Z,11.37
2019-02-09T03:55:00.483Z,6.43
2019-02-09T04:00:07.775Z,7.70
2019-02-09T04:05:11.724Z,8.70
2019-02-09T04:10:18.346Z,9.43
2019-02-09T04:15:27.318Z,10.93
2019-02-09T04:20:29.747Z,10.13
2019-02-09T04:25:31.797Z,11.93
2019-02-09T04:30:33.983Z,10.27
2019-02-09T04:35:35.776Z,10.07
2019-02-09T04:40:37.988Z,8.13
2019-02-09T04:45:40.199Z,11.50
2019-02-09T04:50:41.899Z,13.40
2019-02-09T04:55:43.703Z,8.37
2019-02-09T05:00:45.827Z,9.97
2019-02-09T05:05:47.667Z,9.10
2019-02-09T05:10:49.430Z,12.20
2019-02-09T05:15:51.605Z,7.73
2019-02-09T05:20:53.481Z,13.47
2019-02-09T05:25:55.274Z,14.90
2019-02-09T05:30:56.975Z,7.20
2019-02-09T05:35:58.777Z,12.03
2019-02-09T05:41:00.480Z,9.47
2019-02-09T05:46:03.263Z,11.97
2019-02-09T05:51:04.946Z,8.87
2019-02-09T05:56:07.111Z,7.30
2019-02-09T06:01:09.357Z,6.77
2019-02-09T06:06:11.021Z,9.30
2019-02-09T06:11:12.737Z,9.20
2019-02-09T06:16:14.420Z,5.60
2019-02-09T06:21:16.123Z,7.20
2019-02-09T06:26:18.745Z,3.33
2019-02-09T06:31:21.063Z,6.70
2019-02-09T06:36:22.861Z,5.63
2019-02-09T06:41:24.547Z,3.53
2019-02-09T06:46:27.885Z,4.53
2019-02-09T06:51:29.586Z,7.27
2019-02-09T06:56:31.286Z,4.40
2019-02-09T07:01:33.185Z,4.53
2019-02-09T07:06:34.847Z,3.70
2019-02-09T07:11:36.585Z,4.07
2019-02-09T07:16:38.352Z,4.20
2019-02-09T07:21:40.140Z,4.73
2019-02-09T07:26:42.190Z,5.10
2019-02-09T07:31:43.919Z,3.80
2019-02-09T07:36:45.900Z,4.40
2019-02-09T07:41:47.695Z,3.97
2019-02-09T07:46:49.475Z,5.43
2019-02-09T07:51:51.168Z,3.63
2019-02-09T07:56:53.475Z,5.07
2019-02-09T08:01:55.788Z,6.93
2019-02-09T08:06:57.555Z,4.90
2019-02-09T08:12:00.062Z,6.07
2019-02-09T08:17:01.843Z,7.17
2019-02-09T08:22:03.901Z,7.27
2019-02-09T08:27:05.960Z,3.60
2019-02-09T08:32:12.767Z,6.27
2019-02-09T08:37:11.889Z,9.10
2019-02-09T08:42:13.499Z,5.87
2019-02-09T08:47:15.231Z,9.03
2019-02-09T08:52:16.892Z,8.40
2019-02-09T08:57:23.706Z,8.60
2019-02-09T09:02:25.869Z,9.10
2019-02-09T09:07:27.574Z,5.63
2019-02-09T09:12:29.269Z,8.60
2019-02-09T09:17:30.941Z,7.80
2019-02-09T09:22:32.657Z,7.67
2019-02-09T09:27:34.660Z,7.33
2019-02-09T09:32:40.008Z,8.10
2019-02-09T09:37:41.889Z,7.17
2019-02-09T09:42:44.103Z,9.17
2019-02-09T09:47:46.313Z,8.77
2019-02-09T09:52:48.092Z,6.23
2019-02-09T09:57:49.897Z,5.03
2019-02-09T10:02:52.136Z,5.67
2019-02-09T10:07:54.524Z,6.50
2019-02-09T10:12:56.622Z,6.13
2019-02-09T10:17:58.838Z,9.30
2019-02-09T10:23:00.977Z,5.00
2019-02-09T10:28:03.763Z,6.90
2019-02-09T10:33:05.809Z,7.90
2019-02-09T10:38:07.533Z,6.70
2019-02-09T10:43:09.317Z,6.90
2019-02-09T10:48:10.974Z,5.80
2019-02-09T10:53:12.751Z,7.63
2019-02-09T10:58:14.490Z,8.07
2019-02-09T11:03:16.767Z,8.70
2019-02-09T11:08:18.577Z,8.43
2019-02-09T11:13:20.345Z,7.30
2019-02-09T11:18:22.579Z,7.83
2019-02-09T11:23:24.386Z,6.40
2019-02-09T11:28:27.508Z,7.07
2019-02-09T11:33:29.669Z,6.80
2019-02-09T11:38:31.676Z,6.00
2019-02-09T11:43:33.368Z,6.47
2019-02-09T11:48:37.937Z,6.50
2019-02-09T11:53:40.175Z,4.57
2019-02-09T11:58:41.931Z,9.00
2019-02-09T12:03:44.146Z,8.33
2019-02-09T12:08:45.968Z,6.70
2019-02-09T12:13:55.174Z,9.50
2019-02-09T12:18:52.490Z,10.77
2019-02-09T12:23:54.191Z,12.47
2019-02-09T12:28:59.460Z,9.17
2019-02-09T12:34:01.583Z,11.33
2019-02-09T12:39:06.882Z,8.70
2019-02-09T12:44:08.571Z,14.07
2019-02-09T12:49:10.371Z,8.30
2019-02-09T12:54:12.382Z,10.30
2019-02-09T12:59:17.189Z,12.70
2019-02-09T13:04:21.356Z,13.17
2019-02-09T13:09:24.176Z,9.77
2019-02-09T13:14:26.279Z,12.40
2019-02-09T13:19:28.057Z,12.47
2019-02-09T13:24:29.805Z,11.17
2019-02-09T13:29:31.976Z,10.70
2019-02-09T13:34:33.673Z,13.10
2019-02-09T13:39:35.892Z,12.00
2019-02-09T13:44:37.520Z,13.17
2019-02-09T13:49:39.707Z,12.17
2019-02-09T13:54:41.371Z,14.47
2019-02-09T13:59:43.518Z,11.43
2019-02-09T14:04:45.328Z,14.27
2019-02-09T14:09:47.485Z,16.20
2019-02-09T14:14:49.339Z,10.97
2019-02-09T14:19:51.037Z,14.23
2019-02-09T14:24:53.148Z,12.03
2019-02-09T14:29:54.955Z,18.30
2019-02-09T14:34:57.166Z,15.63
2019-02-09T14:40:00.287Z,12.37
2019-02-09T14:45:03.642Z,19.63
2019-02-09T14:50:11.366Z,13.27
2019-02-09T14:55:19.436Z,15.80
2019-02-09T15:00:33.503Z,16.20
2019-02-09T15:05:36.991Z,12.37
2019-02-09T15:10:40.510Z,15.43
2019-02-09T15:15:57.929Z,16.17
2019-02-09T15:21:12.132Z,14.30
2019-02-09T15:26:14.342Z,13.57
2019-02-09T15:31:18.515Z,17.40
2019-02-09T15:36:20.266Z,16.40
2019-02-09T15:41:22.015Z,18.57
2019-02-09T15:46:24.194Z,14.10
2019-02-09T15:51:25.961Z,17.63
2019-02-09T15:56:27.681Z,19.20
2019-02-09T16:01:29.797Z,19.17
2019-02-09T16:06:31.567Z,21.03
2019-02-09T16:11:33.673Z,21.50
2019-02-09T16:16:37.808Z,17.23
2019-02-09T16:21:39.685Z,16.30
2019-02-09T16:26:41.798Z,15.00
2019-02-09T16:31:46.294Z,18.27
2019-02-09T16:36:48.006Z,24.90
2019-02-09T16:41:49.732Z,18.50
2019-02-09T16:46:51.787Z,18.77
2019-02-09T16:51:53.498Z,18.27
2019-02-09T16:56:55.225Z,15.90
2019-02-09T17:01:57.477Z,18.10
2019-02-09T17:06:59.271Z,15.37
2019-02-09T17:12:01.125Z,18.10
2019-02-09T17:17:02.905Z,22.23
2019-02-09T17:22:04.689Z,22.53
2019-02-09T17:27:07.271Z,20.70
2019-02-09T17:32:10.597Z,17.57
2019-02-09T17:37:12.693Z,20.50
2019-02-09T17:42:14.375Z,16.93
2019-02-09T17:47:22.504Z,18.47
2019-02-09T17:52:24.462Z,17.80
2019-02-09T17:57:26.246Z,17.47
2019-02-09T18:02:28.271Z,18.53
2019-02-09T18:07:30.501Z,19.23
2019-02-09T18:12:32.293Z,23.10
2019-02-09T18:17:34.094Z,19.00
2019-02-09T18:22:35.895Z,20.13
2019-02-09T18:27:37.713Z,16.27
2019-02-09T18:32:41.928Z,18.43
2019-02-09T18:37:44.589Z,20.47
2019-02-09T18:42:46.591Z,16.87
2019-02-09T18:47:48.363Z,15.00
2019-02-09T18:52:50.206Z,20.80
2019-02-09T18:57:52.211Z,20.03
2019-02-09T19:02:54.429Z,13.50
2019-02-09T19:07:56.642Z,12.87
2019-02-09T19:12:58.847Z,14.90
2019-02-09T19:18:00.655Z,18.90
2019-02-09T19:23:02.777Z,20.03
2019-02-09T19:28:05.184Z,16.33
2019-02-09T19:33:07.634Z,16.13
2019-02-09T19:38:09.856Z,16.80
2019-02-09T19:43:11.616Z,20.47
2019-02-09T19:48:13.384Z,20.23
2019-02-09T19:53:15.877Z,19.40
2019-02-09T19:58:17.656Z,14.53
2019-02-09T20:03:19.973Z,13.67
2019-02-09T20:08:22.331Z,16.83
2019-02-09T20:13:24.249Z,16.77
2019-02-09T20:18:28.180Z,10.73
2019-02-09T20:23:30.262Z,16.33
2019-02-09T20:28:32.063Z,18.97
2019-02-09T20:33:33.967Z,18.40
2019-02-09T20:38:36.181Z,15.20
2019-02-09T20:43:38.076Z,14.97
2019-02-09T20:48:39.831Z,15.40
2019-02-09T20:53:41.974Z,13.03
2019-02-09T20:58:43.754Z,15.23
2019-02-09T21:03:45.515Z,15.13
2019-02-09T21:08:47.765Z,16.63
2019-02-09T21:13:49.518Z,17.90
2019-02-09T21:18:51.372Z,13.87
2019-02-09T21:23:53.131Z,15.10
2019-02-09T21:28:54.889Z,15.53
2019-02-09T21:33:56.798Z,14.03
2019-02-09T21:38:58.998Z,13.10
2019-02-09T21:44:00.805Z,14.23
2019-02-09T21:49:02.607Z,14.90
2019-02-09T21:54:04.412Z,18.47
2019-02-09T21:59:06.313Z,13.30
2019-02-09T22:04:08.528Z,12.37
2019-02-09T22:09:11.458Z,12.80
2019-02-09T22:14:13.157Z,13.17
2019-02-09T22:19:14.965Z,15.50
2019-02-09T22:24:16.667Z,13.47
2019-02-09T22:29:19.012Z,12.80
2019-02-09T22:34:22.613Z,11.00
2019-02-09T22:39:24.848Z,13.40
2019-02-09T22:44:27.057Z,12.97
2019-02-09T22:49:28.860Z,14.50
2019-02-09T22:54:31.378Z,15.00
2019-02-09T22:59:33.136Z,11.80
2019-02-09T23:04:38.497Z,11.10
2019-02-09T23:09:43.555Z,12.20
2019-02-09T23:14:45.944Z,10.57
2019-02-09T23:19:51.369Z,13.70
2019-02-09T23:24:54.026Z,11.40
2019-02-09T23:29:56.303Z,10.83
2019-02-09T23:34:58.203Z,12.00
2019-02-09T23:40:00.313Z,13.70
2019-02-09T23:45:02.532Z,12.20
2019-02-09T23:50:05.049Z,11.67
2019-02-09T23:55:07.266Z,9.97
